Time;durP1;ratioP1;P1;durP2;ratioP2;P2;SDS_P1;SDS_P2;PMS_P1;PMS_P2;Temp;Humidity;BMP_temperature;BMP_pressure;BME280_temperature;BME280_humidity;BME280_pressure;Samples;Min_cycle;Max_cycle;Signal;HPM_P1;HPM_P2
2022/09/05 00:02:02;;;;;;;5.88;2.92;;;;;;;17.98;70.83;100840.72;4903861;29;20118;-69
2022/09/05 00:04:33;;;;;;;6.53;3.03;;;;;;;17.77;71.10;100819.00;4901944;29;20056;-71
2022/09/05 00:07:10;;;;;;;6.45;2.85;;;;;;;17.86;71.12;100842.44;4903535;29;20059;-69
2022/09/05 00:10:13;;;;;;;3.22;2.85;;;;;;;17.84;71.57;100839.00;4907138;29;20498;-67
2022/09/05 00:12:42;;;;;;;3.97;2.80;;;;;;;17.82;71.79;100825.72;4904431;29;20048;-68
2022/09/05 00:15:19;;;;;;;3.13;2.83;;;;;;;17.82;71.78;100825.72;4908481;29;20775;-68
2022/09/05 00:17:56;;;;;;;4.90;2.80;;;;;;;17.79;71.93;100828.59;4905923;29;20114;-69
2022/09/05 00:21:12;;;;;;;4.57;2.75;;;;;;;17.82;71.71;100832.91;4906521;29;20052;-68
2022/09/05 00:24:17;;;;;;;5.82;2.88;;;;;;;17.60;71.75;100787.13;4906464;29;20048;-69
2022/09/05 00:27:16;;;;;;;5.15;3.35;;;;;;;17.80;72.30;100827.66;4902638;29;20043;-71
2022/09/05 00:30:01;;;;;;;3.50;2.45;;;;;;;17.78;71.99;100828.75;4903083;29;20139;-67
2022/09/05 00:33:02;;;;;;;5.68;2.90;;;;;;;17.77;71.89;100821.66;4905063;29;20387;-70
2022/09/05 00:35:52;;;;;;;3.28;2.67;;;;;;;17.76;71.86;100830.66;4905643;29;20079;-68
2022/09/05 00:38:24;;;;;;;3.67;2.55;;;;;;;17.76;72.18;100828.84;4903837;29;20084;-70
2022/09/05 00:41:06;;;;;;;3.75;2.25;;;;;;;17.63;72.34;100808.34;4905704;29;20138;-68
2022/09/05 00:43:41;;;;;;;4.10;2.60;;;;;;;17.72;72.11;100821.13;4906606;29;20066;-68
2022/09/05 00:46:21;;;;;;;3.00;2.53;;;;;;;17.70;72.40;100826.59;4903999;29;20463;-67
2022/09/05 00:49:02;;;;;;;4.07;2.72;;;;;;;17.56;72.14;100807.91;4903984;29;20617;-68
2022/09/05 00:51:48;;;;;;;3.83;2.83;;;;;;;17.69;72.67;100829.38;4923170;29;20087;-68
2022/09/05 00:54:45;;;;;;;3.70;2.50;;;;;;;17.66;72.75;100827.75;4922543;29;20075;-69
2022/09/05 00:57:44;;;;;;;6.45;3.10;;;;;;;17.60;73.27;100828.16;4922917;29;20064;-69
2022/09/05 01:00:18;;;;;;;4.43;2.95;;;;;;;17.55;73.23;100822.25;4921849;29;20131;-68
2022/09/05 01:02:45;;;;;;;4.55;2.58;;;;;;;17.54;73.29;100823.22;4923434;29;21049;-66
2022/09/05 01:05:55;;;;;;;3.35;2.75;;;;;;;17.58;73.22;100827.41;4924823;29;20185;-69
2022/09/05 01:08:41;;;;;;;4.47;2.65;;;;;;;17.45;73.28;100814.03;4925076;29;20155;-67
2022/09/05 01:11:39;;;;;;;4.32;2.70;;;;;;;17.44;73.61;100814.13;4920379;29;20055;-70
2022/09/05 01:14:23;;;;;;;3.47;2.85;;;;;;;17.45;73.74;100818.50;4923445;29;20107;-67
2022/09/05 01:16:52;;;;;;;3.20;2.67;;;;;;;17.39;74.00;100821.59;4925512;29;20138;-68
2022/09/05 01:19:49;;;;;;;4.82;2.97;;;;;;;17.21;74.28;100796.09;4922060;29;20091;-68
2022/09/05 01:22:49;;;;;;;3.08;2.78;;;;;;;17.32;74.67;100810.44;4922954;29;20126;-67
2022/09/05 01:25:46;;;;;;;3.28;2.60;;;;;;;17.36;74.33;100820.00;4919974;29;20130;-69
2022/09/05 01:28:55;;;;;;;6.30;2.90;;;;;;;17.37;73.96;100818.16;4921243;29;20513;-66
2022/09/05 01:32:10;;;;;;;4.93;2.90;;;;;;;17.23;74.54;100820.94;4922943;29;20060;-68
2022/09/05 01:35:14;;;;;;;4.85;2.90;;;;;;;17.14;74.88;100819.75;4924804;29;20095;-67
2022/09/05 01:37:52;;;;;;;4.32;3.22;;;;;;;17.05;75.39;100813.19;4922570;29;20104;-67
2022/09/05 01:40:37;;;;;;;5.05;2.85;;;;;;;17.06;75.57;100824.75;4920956;29;20078;-67
2022/09/05 01:43:24;;;;;;;4.70;2.92;;;;;;;16.88;75.47;100793.88;4922034;29;20190;-69
2022/09/05 01:45:58;;;;;;;5.97;2.83;;;;;;;16.90;75.46;100808.00;4917726;29;20052;-69
2022/09/05 01:48:36;;;;;;;3.33;2.58;;;;;;;16.90;75.48;100805.31;4920563;29;20588;-69
2022/09/05 01:51:35;;;;;;;6.30;3.13;;;;;;;16.76;75.70;100787.53;4921066;29;20107;-70
2022/09/05 01:54:11;;;;;;;5.47;2.95;;;;;;;16.88;75.90;100825.97;4920333;29;20052;-69
2022/09/05 01:57:09;;;;;;;5.82;2.92;;;;;;;16.91;75.91;100815.06;4919729;29;20055;-67
2022/09/05 01:59:45;;;;;;;3.85;2.58;;;;;;;16.81;76.03;100788.09;4920948;29;20074;-71
2022/09/05 02:02:26;;;;;;;4.68;2.90;;;;;;;16.90;75.48;100811.53;4920597;29;20481;-68
2022/09/05 02:05:05;;;;;;;3.20;2.90;;;;;;;16.89;75.74;100804.47;4921039;29;20151;-69
2022/09/05 02:07:53;;;;;;;4.13;2.80;;;;;;;16.84;75.98;100801.25;4922577;29;20102;-69
2022/09/05 02:10:20;;;;;;;4.57;2.90;;;;;;;16.81;76.75;100796.09;4917371;29;20064;-69
2022/09/05 02:12:54;;;;;;;5.57;3.10;;;;;;;16.79;76.75;100800.69;4921957;29;20086;-69
2022/09/05 02:16:03;;;;;;;4.57;3.20;;;;;;;16.73;76.38;100801.09;4925373;29;20133;-69
2022/09/05 02:18:57;;;;;;;3.40;3.10;;;;;;;16.65;77.00;100808.78;4879568;29;20362;-70
2022/09/05 02:21:34;;;;;;;4.35;2.97;;;;;;;16.65;77.15;100798.06;4919357;29;20056;-71
2022/09/05 02:24:35;;;;;;;6.38;3.20;;;;;;;16.51;77.07;100769.53;4919996;29;20059;-68
2022/09/05 02:27:18;;;;;;;7.00;3.33;;;;;;;16.60;77.08;100797.47;4922066;29;20106;-67
2022/09/05 02:30:23;;;;;;;4.10;2.90;;;;;;;16.54;77.30;100795.19;4920588;29;20059;-69
2022/09/05 02:33:22;;;;;;;3.55;2.90;;;;;;;16.52;77.47;100791.78;4921785;29;20056;-70
2022/09/05 02:36:11;;;;;;;5.22;3.40;;;;;;;16.52;77.85;100794.47;4918482;29;20055;-68
2022/09/05 02:38:49;;;;;;;3.13;2.85;;;;;;;16.46;77.85;100788.53;4921622;29;20130;-69
2022/09/05 02:42:04;;;;;;;4.47;3.20;;;;;;;16.47;77.97;100787.59;4924281;29;20272;-69
2022/09/05 02:45:25;;;;;;;4.47;3.25;;;;;;;16.29;77.80;100759.38;4918994;29;20040;-67
2022/09/05 02:48:07;;;;;;;5.32;3.20;;;;;;;16.46;78.31;100785.00;4921610;29;20055;-69
2022/09/05 02:51:07;;;;;;;4.90;3.22;;;;;;;16.46;78.10;100783.19;4918418;29;20083;-70
2022/09/05 02:54:01;;;;;;;4.53;3.38;;;;;;;16.41;78.06;100787.97;4923052;29;20053;-70
2022/09/05 02:57:24;;;;;;;4.57;3.22;;;;;;;16.37;78.35;100788.31;4921065;29;20052;-67
2022/09/05 03:00:23;;;;;;;6.55;3.65;;;;;;;16.33;78.63;100800.13;4921565;29;20296;-70
2022/09/05 03:03:16;;;;;;;4.07;3.20;;;;;;;16.31;78.76;100794.03;4922112;29;20048;-67
2022/09/05 03:05:56;;;;;;;4.22;3.55;;;;;;;16.28;78.98;100792.41;4919100;29;20083;-69
2022/09/05 03:09:03;;;;;;;4.60;3.42;;;;;;;16.29;78.95;100791.44;4921022;29;20075;-68
2022/09/05 03:12:18;;;;;;;4.20;3.80;;;;;;;16.33;78.88;100794.78;4922127;29;20076;-68
2022/09/05 03:15:09;;;;;;;6.00;3.53;;;;;;;16.39;79.06;100808.59;4917296;29;20102;-68
2022/09/05 03:18:16;;;;;;;4.13;3.53;;;;;;;16.42;78.80;100805.72;4920271;29;20048;-68
2022/09/05 03:21:02;;;;;;;3.30;3.00;;;;;;;16.43;78.73;100810.13;4918960;29;20110;-69
2022/09/05 03:23:50;;;;;;;3.80;3.10;;;;;;;16.44;78.64;100798.47;4925070;29;20055;-67
2022/09/05 03:26:19;;;;;;;4.45;2.95;;;;;;;16.48;78.76;100804.50;4924060;29;20105;-69
2022/09/05 03:29:16;;;;;;;5.13;3.60;;;;;;;16.53;78.79;100806.88;4923382;29;21158;-67
2022/09/05 03:32:20;;;;;;;4.22;3.17;;;;;;;16.53;78.61;100805.03;4924159;29;20178;-67
2022/09/05 03:35:17;;;;;;;4.75;3.50;;;;;;;16.54;78.48;100803.22;4922390;29;20134;-67
2022/09/05 03:38:12;;;;;;;3.42;3.10;;;;;;;16.42;78.67;100781.69;4925872;29;20461;-68
2022/09/05 03:40:38;;;;;;;4.43;3.20;;;;;;;16.58;78.63;100796.72;4922668;29;21105;-68
2022/09/05 03:43:33;;;;;;;5.57;3.55;;;;;;;16.61;78.54;100797.38;4925140;29;20110;-69
2022/09/05 03:46:40;;;;;;;5.43;3.33;;;;;;;16.65;78.78;100795.41;4918561;29;20075;-67
2022/09/05 03:49:38;;;;;;;6.15;3.67;;;;;;;16.58;78.71;100780.69;4883149;29;20071;-68
2022/09/05 03:53:11;;;;;;;5.00;3.15;;;;;;;16.74;78.50;100801.00;4891319;29;20044;-66
2022/09/05 03:56:29;;;;;;;5.18;4.28;;;;;;;16.75;78.22;100800.03;4923300;29;20855;-68
2022/09/05 03:59:43;;;;;;;5.05;3.33;;;;;;;16.75;78.45;100793.81;4923451;29;20447;-69
2022/09/05 04:02:18;;;;;;;3.85;3.33;;;;;;;16.80;78.04;100800.59;4924546;29;20131;-67
2022/09/05 04:05:24;;;;;;;5.70;3.60;;;;;;;16.79;78.09;100795.34;4919802;29;20078;-69
2022/09/05 04:08:23;;;;;;;3.58;3.22;;;;;;;16.78;78.18;100789.13;4923664;29;20051;-69
2022/09/05 04:11:17;;;;;;;4.82;3.40;;;;;;;16.77;78.28;100786.56;4924611;29;20051;-68
2022/09/05 04:14:07;;;;;;;3.90;3.17;;;;;;;16.77;78.08;100805.28;4924878;29;20064;-69
2022/09/05 04:16:52;;;;;;;3.97;3.20;;;;;;;16.73;78.18;100807.28;4921189;29;20123;-69
2022/09/05 04:19:27;;;;;;;6.35;3.80;;;;;;;16.70;78.56;100802.16;4922198;29;20102;-67
2022/09/05 04:22:13;;;;;;;4.65;3.17;;;;;;;16.68;78.76;100795.22;4924031;29;20056;-68
2022/09/05 04:25:26;;;;;;;3.45;3.15;;;;;;;16.73;78.58;100801.94;4926445;29;20067;-68
2022/09/05 04:28:33;;;;;;;5.22;3.33;;;;;;;16.75;78.44;100804.53;4919849;29;20462;-70
2022/09/05 04:31:18;;;;;;;4.78;2.92;;;;;;;16.76;77.94;100804.44;4862443;29;20049;-69
2022/09/05 04:34:15;;;;;;;4.10;3.30;;;;;;;16.70;78.09;100804.81;4921487;29;20497;-68
2022/09/05 04:36:44;;;;;;;5.15;3.35;;;;;;;16.67;78.16;100805.03;4920378;29;20051;-66
2022/09/05 04:39:16;;;;;;;6.00;3.75;;;;;;;16.52;78.98;100797.13;4924694;29;20055;-66
2022/09/05 04:42:08;;;;;;;3.42;3.13;;;;;;;16.56;79.32;100814.66;4923341;29;20098;-69
2022/09/05 04:45:08;;;;;;;6.10;3.90;;;;;;;16.50;79.53;100815.94;4915289;29;20106;-68
2022/09/05 04:47:41;;;;;;;4.82;3.60;;;;;;;16.48;79.72;100817.84;4921754;29;20489;-66
2022/09/05 04:50:12;;;;;;;5.10;3.60;;;;;;;16.47;79.83;100822.34;4921942;29;20492;-71
2022/09/05 04:52:46;;;;;;;5.55;3.20;;;;;;;16.45;79.94;100826.06;4920915;29;20059;-67
2022/09/05 04:55:19;;;;;;;4.93;3.60;;;;;;;16.32;80.07;100809.97;4923763;29;20213;-65
2022/09/05 04:58:05;;;;;;;5.25;3.70;;;;;;;16.40;80.30;100822.81;4921465;29;20561;-67
2022/09/05 05:00:50;;;;;;;5.07;3.72;;;;;;;16.41;80.13;100832.56;4921551;29;20102;-69
2022/09/05 05:03:38;;;;;;;4.63;3.55;;;;;;;16.44;80.23;100830.56;4917001;29;20043;-67
2022/09/05 05:06:31;;;;;;;5.43;3.47;;;;;;;16.47;80.51;100830.38;4922197;29;20057;-69
2022/09/05 05:09:25;;;;;;;4.82;3.90;;;;;;;16.47;79.95;100833.03;4920426;29;20055;-69
2022/09/05 05:11:58;;;;;;;6.00;3.92;;;;;;;16.54;80.09;100837.97;4918161;29;20186;-68
2022/09/05 05:14:50;;;;;;;6.40;4.03;;;;;;;16.56;80.20;100836.06;4920806;29;20156;-66
2022/09/05 05:17:37;;;;;;;7.13;3.80;;;;;;;16.55;80.40;100839.69;4919288;29;20048;-68
2022/09/05 05:20:31;;;;;;;6.97;3.88;;;;;;;16.56;80.17;100844.94;4918598;29;20163;-69
2022/09/05 05:23:15;;;;;;;6.03;4.20;;;;;;;16.40;80.37;100826.34;4923897;29;20714;-69
2022/09/05 05:25:45;;;;;;;5.15;3.88;;;;;;;16.40;80.38;100826.34;4921801;29;20051;-68
2022/09/05 05:28:19;;;;;;;;;;;;;;;16.57;80.61;100854.69;4925516;29;20501;-68
2022/09/05 05:30:51;;;;;;;5.72;4.28;;;;;;;16.63;80.23;100854.31;4924017;29;19923;-68
2022/09/05 05:33:33;;;;;;;4.45;3.67;;;;;;;16.68;80.02;100856.72;4923372;29;20059;-68
2022/09/05 05:36:03;;;;;;;4.10;3.60;;;;;;;16.70;80.28;100852.94;4915132;29;20087;-68
2022/09/05 05:38:36;;;;;;;;;;;;;;;16.77;80.04;100866.78;4923011;29;20525;-69
2022/09/05 05:41:28;;;;;;;7.07;4.00;;;;;;;16.70;79.97;100836.91;4921577;29;20005;-67
2022/09/05 05:43:55;;;;;;;6.65;3.95;;;;;;;16.89;79.68;100860.63;4922687;29;20142;-68
2022/09/05 05:46:33;;;;;;;4.25;3.42;;;;;;;16.95;79.47;100862.91;4918646;28;20537;-68
2022/09/05 05:49:16;;;;;;;5.20;3.67;;;;;;;16.85;79.31;100843.06;4922795;29;20124;-70
2022/09/05 05:52:06;;;;;;;4.53;3.20;;;;;;;17.02;79.24;100874.06;4920157;29;20052;-69
2022/09/05 05:54:48;;;;;;;6.03;4.30;;;;;;;17.01;79.08;100873.19;4902263;29;20970;-67
2022/09/05 05:57:46;;;;;;;6.57;4.90;;;;;;;17.07;78.84;100875.47;4920442;29;20063;-68
2022/09/05 06:00:27;;;;;;;7.80;4.40;;;;;;;17.10;78.61;100869.94;4922245;29;20055;-68
2022/09/05 06:03:27;;;;;;;5.25;3.63;;;;;;;17.15;78.30;100877.66;4919070;29;20103;-68
2022/09/05 06:05:58;;;;;;;7.30;4.20;;;;;;;17.15;77.59;100873.16;4919162;29;20051;-70
2022/09/05 06:08:27;;;;;;;;;;;;;;;17.20;77.38;100878.19;4922939;29;20051;-68
2022/09/05 06:11:39;;;;;;;7.53;4.30;;;;;;;17.10;77.35;100861.03;4923807;29;19973;-70
2022/09/05 06:14:37;;;;;;;6.75;3.92;;;;;;;17.27;77.54;100887.53;4916745;29;20048;-68
2022/09/05 06:17:50;;;;;;;5.95;4.10;;;;;;;17.32;77.36;100880.03;4921071;29;20060;-66
2022/09/05 06:20:55;;;;;;;4.82;4.18;;;;;;;17.41;77.43;100883.94;4919178;29;20490;-66
2022/09/05 06:24:02;;;;;;;5.45;3.97;;;;;;;17.39;77.02;100864.44;4916831;29;20055;-71
2022/09/05 06:27:04;;;;;;;4.95;3.65;;;;;;;17.48;77.29;100858.44;4918320;29;20044;-69
2022/09/05 06:29:39;;;;;;;4.03;3.63;;;;;;;17.67;76.81;100877.69;4921622;29;20099;-66
2022/09/05 06:32:28;;;;;;;6.13;3.78;;;;;;;17.76;76.42;100876.22;4916195;29;20062;-67
2022/09/05 06:35:12;;;;;;;5.68;3.90;;;;;;;17.89;75.82;100874.38;4920443;29;20051;-69
2022/09/05 06:37:48;;;;;;;4.07;3.67;;;;;;;18.02;74.94;100872.56;4920877;29;20055;-69
2022/09/05 06:40:18;;;;;;;5.18;4.10;;;;;;;18.03;74.50;100860.00;4918469;29;20047;-67
2022/09/05 06:43:04;;;;;;;6.57;3.70;;;;;;;18.20;73.77;100860.53;4917740;29;20135;-70
2022/09/05 06:46:00;;;;;;;7.28;3.78;;;;;;;18.44;73.11;100873.13;4919318;29;20079;-69
2022/09/05 06:48:41;;;;;;;4.13;3.45;;;;;;;18.64;72.33;100874.41;4922899;29;20051;-69
2022/09/05 06:51:41;;;;;;;5.43;3.63;;;;;;;18.92;72.44;100872.25;4928111;29;20039;-66
2022/09/05 06:54:20;;;;;;;4.60;3.53;;;;;;;19.27;70.61;100872.31;4922989;29;20474;-69
2022/09/05 06:57:16;;;;;;;4.75;3.50;;;;;;;19.76;68.74;100871.28;4925647;29;20055;-72
2022/09/05 06:59:46;;;;;;;4.57;3.10;;;;;;;20.28;66.25;100880.63;4886508;29;20062;-70
2022/09/05 07:02:33;;;;;;;4.95;2.95;;;;;;;20.65;63.88;100865.06;4922500;29;20090;-69
2022/09/05 07:05:51;;;;;;;3.55;2.78;;;;;;;20.80;62.96;100868.34;4929905;29;20126;-69
2022/09/05 07:08:34;;;;;;;4.45;3.00;;;;;;;20.77;63.04;100863.25;4927333;29;20094;-68
2022/09/05 07:11:38;;;;;;;3.58;3.13;;;;;;;20.69;62.62;100863.84;4930313;29;20062;-69
2022/09/05 07:14:20;;;;;;;4.25;2.97;;;;;;;20.99;63.65;100873.94;4879353;29;20549;-68
2022/09/05 07:16:54;;;;;;;3.72;2.97;;;;;;;21.20;61.59;100871.34;4925687;29;20055;-67
2022/09/05 07:19:37;;;;;;;4.57;2.85;;;;;;;21.19;61.92;100857.00;4928278;29;20048;-68
2022/09/05 07:22:11;;;;;;;8.02;2.83;;;;;;;21.28;61.92;100874.22;4921703;29;20067;-69
2022/09/05 07:25:12;;;;;;;5.15;2.72;;;;;;;21.31;62.20;100872.13;4924570;29;20504;-67
2022/09/05 07:28:15;;;;;;;3.17;2.80;;;;;;;21.56;62.17;100886.25;4926697;29;20060;-70
2022/09/05 07:31:02;;;;;;;4.10;2.70;;;;;;;21.81;60.49;100885.84;4928073;29;20419;-68
2022/09/05 07:33:30;;;;;;;3.63;2.60;;;;;;;21.85;59.41;100864.88;4924651;29;20056;-69
2022/09/05 07:36:12;;;;;;;3.78;2.53;;;;;;;22.37;59.95;100889.00;4918743;29;20075;-69
2022/09/05 07:38:39;;;;;;;3.20;2.72;;;;;;;22.83;57.20;100884.03;4921608;29;21509;-70
2022/09/05 07:41:28;;;;;;;3.35;3.05;;;;;;;23.09;54.42;100882.53;4916664;29;20043;-69
2022/09/05 07:44:09;;;;;;;3.17;2.58;;;;;;;23.16;54.87;100883.66;4917685;29;20056;-66
2022/09/05 07:46:39;;;;;;;3.13;2.70;;;;;;;23.29;54.74;100884.28;4917028;29;20147;-66
2022/09/05 07:49:11;;;;;;;4.28;2.40;;;;;;;23.30;53.88;100868.88;4919941;29;20082;-67
2022/09/05 07:51:45;;;;;;;2.65;2.40;;;;;;;23.14;54.94;100893.75;4925482;29;20175;-68
2022/09/05 07:54:35;;;;;;;4.28;2.90;;;;;;;23.33;54.79;100885.66;4927434;29;20059;-67
2022/09/05 07:57:39;;;;;;;7.07;2.72;;;;;;;23.32;54.15;100881.25;4924764;29;20131;-66
2022/09/05 08:00:22;;;;;;;3.50;2.30;;;;;;;23.35;54.69;100891.78;4925372;29;20051;-66
2022/09/05 08:03:06;;;;;;;6.00;2.60;;;;;;;23.44;54.36;100884.69;4922122;29;20135;-66
2022/09/05 08:05:41;;;;;;;4.65;2.70;;;;;;;23.74;53.79;100884.56;4925724;29;20513;-67
2022/09/05 08:08:13;;;;;;;3.55;2.47;;;;;;;23.85;52.18;100864.59;4927856;29;20071;-67
2022/09/05 08:10:46;;;;;;;6.30;3.08;;;;;;;23.79;52.60;100879.53;4930642;29;20134;-66
2022/09/05 08:13:42;;;;;;;5.22;2.63;;;;;;;23.77;53.29;100883.38;4928155;29;20487;-67
2022/09/05 08:16:23;;;;;;;4.03;2.80;;;;;;;23.61;53.60;100867.75;4927664;29;20051;-68
2022/09/05 08:19:35;;;;;;;4.30;2.60;;;;;;;23.72;53.12;100885.69;4925424;29;20047;-68
2022/09/05 08:22:04;;;;;;;4.13;2.53;;;;;;;23.76;52.61;100871.75;4919523;29;20051;-68
2022/09/05 08:24:38;;;;;;;4.43;2.80;;;;;;;23.82;53.15;100870.28;4920769;29;20055;-66
2022/09/05 08:27:20;;;;;;;3.40;2.15;;;;;;;24.00;52.21;100868.53;4922867;29;20048;-68
2022/09/05 08:30:01;;;;;;;5.55;2.25;;;;;;;24.16;51.43;100858.94;4921159;29;20420;-66
2022/09/05 08:33:09;;;;;;;2.83;2.10;;;;;;;24.58;51.49;100871.03;4921402;29;20466;-66
2022/09/05 08:35:59;;;;;;;4.30;2.42;;;;;;;24.92;49.16;100856.84;4921284;29;20060;-67
2022/09/05 08:38:31;;;;;;;4.65;2.20;;;;;;;25.34;48.25;100857.97;4920083;29;20060;-66
2022/09/05 08:41:15;;;;;;;2.40;2.20;;;;;;;25.91;46.69;100869.31;4921378;29;20073;-67
2022/09/05 08:44:08;;;;;;;3.17;2.10;;;;;;;26.24;47.21;100869.50;4918828;29;20058;-67
2022/09/05 08:47:09;;;;;;;4.43;2.25;;;;;;;26.55;45.03;100863.41;4923251;29;20137;-67
2022/09/05 08:49:56;;;;;;;4.95;3.00;;;;;;;26.25;45.52;100865.78;4917389;29;20075;-68
2022/09/05 08:52:49;;;;;;;3.47;2.38;;;;;;;25.78;46.00;100850.75;4922705;29;20059;-67
2022/09/05 08:55:43;;;;;;;3.65;2.28;;;;;;;25.44;47.46;100849.78;4920176;29;20156;-67
2022/09/05 08:58:44;;;;;;;4.78;2.47;;;;;;;24.99;48.52;100839.88;4929461;29;20111;-66
2022/09/05 09:01:19;;;;;;;3.40;2.35;;;;;;;24.90;48.97;100842.59;4934098;29;20048;-66
2022/09/05 09:04:05;;;;;;;4.63;2.78;;;;;;;24.85;49.27;100847.66;4936548;29;20052;-66
2022/09/05 09:06:55;;;;;;;6.05;2.42;;;;;;;24.71;49.61;100849.03;4929645;29;20071;-68
2022/09/05 09:09:48;;;;;;;4.78;2.42;;;;;;;24.60;49.90;100841.09;4925035;29;20078;-66
2022/09/05 09:12:43;;;;;;;4.30;2.70;;;;;;;24.46;49.62;100818.94;4927548;29;20453;-66
2022/09/05 09:15:23;;;;;;;6.95;2.63;;;;;;;24.45;49.46;100824.50;4929515;29;20514;-66
2022/09/05 09:17:51;;;;;;;4.25;2.30;;;;;;;24.53;50.29;100835.44;4930034;29;20087;-66
2022/09/05 09:20:28;;;;;;;7.45;2.80;;;;;;;24.65;49.93;100836.94;4923934;29;20043;-66
2022/09/05 09:23:09;;;;;;;3.53;2.50;;;;;;;24.91;50.13;100838.91;4929439;29;20102;-67
2022/09/05 09:26:34;;;;;;;;;;;;;;;25.37;48.02;100840.53;4923985;29;20056;-66
2022/09/05 09:29:16;;;;;;;4.45;2.45;;;;;;;25.83;47.58;100842.97;4884530;29;19935;-67
2022/09/05 09:32:12;;;;;;;4.30;2.67;;;;;;;26.14;46.81;100840.59;4884706;29;20108;-67
2022/09/05 09:34:47;;;;;;;4.80;2.67;;;;;;;26.43;45.88;100836.72;4918475;29;20050;-67
2022/09/05 09:37:17;;;;;;;5.07;2.83;;;;;;;26.40;45.64;100837.88;4918633;29;21707;-67
2022/09/05 09:40:33;;;;;;;4.33;2.50;;;;;;;26.26;46.01;100843.06;4916581;29;20059;-67
2022/09/05 09:43:26;;;;;;;6.38;2.50;;;;;;;26.29;45.96;100832.72;4916703;29;20550;-67
2022/09/05 09:46:08;;;;;;;3.00;2.70;;;;;;;26.07;46.44;100828.72;4915820;29;20800;-66
2022/09/05 09:49:06;;;;;;;3.97;2.17;;;;;;;25.99;46.46;100835.94;4925081;29;20051;-69
2022/09/05 09:51:51;;;;;;;2.85;2.55;;;;;;;25.76;47.11;100839.19;4920602;29;20058;-67
2022/09/05 09:54:49;;;;;;;4.20;3.10;;;;;;;25.72;46.76;100831.53;4920572;29;20052;-67
2022/09/05 09:57:35;;;;;;;5.18;2.30;;;;;;;25.84;47.60;100832.97;4920562;29;20055;-66
2022/09/05 10:00:14;;;;;;;3.42;2.30;;;;;;;26.26;46.32;100824.06;4914457;29;20051;-67
2022/09/05 10:03:18;;;;;;;3.80;2.45;;;;;;;26.32;45.04;100801.69;4917957;29;20067;-69
2022/09/05 10:06:26;;;;;;;3.65;2.50;;;;;;;26.10;45.64;100822.09;4915619;29;20200;-67
2022/09/05 10:09:33;;;;;;;3.97;2.30;;;;;;;25.55;46.32;100781.72;4916637;29;20054;-66
2022/09/05 10:12:57;;;;;;;3.42;2.00;;;;;;;25.59;46.96;100812.94;4920355;29;20068;-67
2022/09/05 10:15:55;;;;;;;2.70;2.00;;;;;;;25.82;47.26;100816.84;4922533;29;20086;-67
2022/09/05 10:18:42;;;;;;;5.65;2.03;;;;;;;26.22;46.57;100804.50;4919944;29;20055;-68
2022/09/05 10:21:40;;;;;;;3.97;2.22;;;;;;;26.52;43.89;100789.53;4922020;29;20125;-67
2022/09/05 10:24:10;;;;;;;5.25;1.70;;;;;;;26.69;43.79;100802.16;4913898;29;20083;-68
2022/09/05 10:26:56;;;;;;;4.50;2.13;;;;;;;26.83;44.12;100804.22;4917796;29;20048;-69
2022/09/05 10:29:45;;;;;;;2.35;1.70;;;;;;;27.01;42.85;100806.84;4923920;29;20505;-67
2022/09/05 10:32:22;;;;;;;2.67;1.98;;;;;;;27.17;42.89;100795.97;4922930;29;20087;-67
2022/09/05 10:35:17;;;;;;;4.13;1.80;;;;;;;27.38;42.49;100797.34;4921615;29;20158;-66
2022/09/05 10:38:26;;;;;;;5.05;2.00;;;;;;;27.36;42.12;100797.50;4923054;29;20469;-67
2022/09/05 10:41:09;;;;;;;5.95;1.80;;;;;;;27.20;42.43;100764.88;4920439;29;20048;-67
2022/09/05 10:44:01;;;;;;;2.10;1.90;;;;;;;27.56;41.96;100784.38;4917909;29;20063;-66
2022/09/05 10:46:34;;;;;;;2.67;2.20;;;;;;;27.68;41.65;100776.75;4916874;29;20063;-67
2022/09/05 10:49:26;;;;;;;5.68;2.00;;;;;;;27.38;41.79;100760.09;4922126;29;20135;-67
2022/09/05 10:52:32;;;;;;;7.70;2.42;;;;;;;27.61;42.41;100765.69;4915704;29;20537;-67
2022/09/05 10:55:09;;;;;;;3.53;2.10;;;;;;;27.68;41.00;100757.69;4921887;29;20471;-68
2022/09/05 10:58:25;;;;;;;4.05;1.83;;;;;;;27.77;41.39;100737.59;4914447;29;20533;-67
2022/09/05 11:01:40;;;;;;;3.13;1.90;;;;;;;27.91;40.94;100753.19;4918490;29;20052;-67
2022/09/05 11:04:46;;;;;;;2.22;1.92;;;;;;;27.99;40.81;100752.34;4919374;29;20210;-65
2022/09/05 11:07:28;;;;;;;4.40;2.15;;;;;;;28.09;40.09;100748.38;4920892;29;20054;-67
2022/09/05 11:10:11;;;;;;;2.28;2.00;;;;;;;28.01;40.66;100729.34;4916461;29;20046;-68
2022/09/05 11:13:09;;;;;;;3.30;1.83;;;;;;;28.07;39.53;100735.94;4920455;29;20491;-67
2022/09/05 11:15:57;;;;;;;1.90;1.70;;;;;;;28.04;39.15;100731.69;4921311;29;20056;-67
2022/09/05 11:18:52;;;;;;;2.92;1.60;;;;;;;28.11;38.97;100734.56;4922643;29;20039;-67
2022/09/05 11:21:49;;;;;;;3.35;1.80;;;;;;;28.23;39.06;100734.03;4922422;29;20134;-67
2022/09/05 11:24:54;;;;;;;6.03;1.90;;;;;;;28.38;38.81;100725.09;4919356;29;20056;-67
2022/09/05 11:27:33;;;;;;;2.85;2.03;;;;;;;28.54;38.88;100709.50;4926176;29;20435;-67
2022/09/05 11:30:03;;;;;;;2.58;1.77;;;;;;;28.74;37.67;100731.69;4917660;29;20044;-67
2022/09/05 11:32:51;;;;;;;1.60;1.50;;;;;;;28.70;37.86;100724.03;4922980;29;20107;-67
2022/09/05 11:35:47;;;;;;;2.45;1.45;;;;;;;28.57;37.63;100724.63;4919669;29;20123;-67
2022/09/05 11:38:47;;;;;;;2.40;1.75;;;;;;;28.67;38.11;100719.78;4920189;29;20427;-68
2022/09/05 11:41:49;;;;;;;3.43;1.97;;;;;;;28.84;37.17;100718.66;4923120;29;20126;-68
2022/09/05 11:44:42;;;;;;;2.88;1.60;;;;;;;28.91;36.15;100711.47;4923318;29;20043;-66
2022/09/05 11:47:41;;;;;;;4.60;1.92;;;;;;;28.95;36.54;100711.97;4925037;29;20066;-66
2022/09/05 11:50:45;;;;;;;1.90;1.80;;;;;;;28.97;36.18;100709.88;4923077;29;20410;-66
2022/09/05 11:53:47;;;;;;;3.03;1.60;;;;;;;28.80;36.68;100708.34;4925102;29;20102;-67
2022/09/05 11:56:28;;;;;;;2.85;1.77;;;;;;;28.62;37.34;100709.44;4924897;29;20130;-65
2022/09/05 11:59:24;;;;;;;3.33;1.77;;;;;;;28.57;37.25;100708.28;4920649;29;23021;-67
2022/09/05 12:02:31;;;;;;;2.25;1.60;;;;;;;28.19;37.31;100700.00;4924058;29;20039;-66
2022/09/05 12:05:34;;;;;;;2.22;1.67;;;;;;;27.78;37.63;100696.59;4922890;29;20391;-66
2022/09/05 12:08:27;;;;;;;8.10;2.78;;;;;;;27.36;38.69;100683.28;4923578;29;20248;-67
2022/09/05 12:11:19;;;;;;;3.67;1.83;;;;;;;27.17;39.21;100676.34;4923188;29;20077;-67
2022/09/05 12:13:53;;;;;;;2.33;2.10;;;;;;;27.21;39.64;100691.31;4910377;29;20070;-67
2022/09/05 12:16:51;;;;;;;2.65;1.60;;;;;;;27.19;39.18;100684.34;4921053;29;20051;-67
2022/09/05 12:19:36;;;;;;;2.97;1.70;;;;;;;27.04;38.95;100659.72;4922018;29;20059;-66
2022/09/05 12:22:37;;;;;;;5.80;2.08;;;;;;;27.16;39.36;100684.66;4920293;29;20063;-66
2022/09/05 12:25:39;;;;;;;2.90;1.75;;;;;;;27.19;39.42;100673.47;4898616;29;20079;-66
2022/09/05 12:28:35;;;;;;;4.07;2.00;;;;;;;27.68;38.29;100676.06;4927425;29;20135;-66
2022/09/05 12:31:45;;;;;;;1.88;1.60;;;;;;;28.19;37.94;100675.50;4930447;29;20067;-66
2022/09/05 12:34:52;;;;;;;;;;;;;;;28.60;36.50;100669.78;4926417;29;20058;-68
2022/09/05 12:38:03;;;;;;;3.80;1.80;;;;;;;28.77;35.55;100652.28;4923183;29;19931;-68
2022/09/05 12:40:58;;;;;;;4.70;1.90;;;;;;;29.16;35.46;100664.88;4918406;29;20163;-68
2022/09/05 12:44:12;;;;;;;1.77;1.27;;;;;;;29.46;33.65;100657.59;4921041;29;20073;-68
2022/09/05 12:47:16;;;;;;;3.97;1.70;;;;;;;29.56;33.00;100650.84;4906794;29;20051;-68
2022/09/05 12:50:02;;;;;;;1.92;1.48;;;;;;;29.75;31.88;100651.28;4921655;29;20569;-68
2022/09/05 12:52:45;;;;;;;2.55;1.40;;;;;;;29.85;32.15;100649.09;4921822;29;20477;-67
2022/09/05 12:55:26;;;;;;;2.20;1.70;;;;;;;29.98;31.49;100649.28;4925531;28;20095;-67
2022/09/05 12:58:00;;;;;;;2.58;1.40;;;;;;;30.02;31.87;100636.97;4921746;29;20048;-68
2022/09/05 13:00:48;;;;;;;2.83;1.10;;;;;;;29.98;31.30;100625.56;4922100;29;20384;-68
2022/09/05 13:03:46;;;;;;;4.80;1.67;;;;;;;30.12;31.40;100634.75;4922602;29;20111;-68
2022/09/05 13:06:39;;;;;;;2.10;1.50;;;;;;;30.28;30.61;100622.72;4930740;29;20509;-67
2022/09/05 13:09:18;;;;;;;1.98;1.10;;;;;;;30.10;28.84;100617.72;4928073;29;20087;-67
2022/09/05 13:12:04;;;;;;;1.30;1.17;;;;;;;29.98;30.15;100611.06;4926412;29;20091;-68